createdAt,value
2023-03-04T00:01:11.702Z,8.84
2023-03-04T00:03:39.674Z,8.86
2023-03-04T00:06:07.939Z,8.86
2023-03-04T00:08:36.196Z,8.86
2023-03-04T00:11:04.284Z,8.85
2023-03-04T00:13:32.278Z,8.83
2023-03-04T00:15:59.946Z,8.84
2023-03-04T00:18:27.793Z,8.86
2023-03-04T00:20:55.521Z,8.88
2023-03-04T00:23:23.391Z,8.90
2023-03-04T00:25:51.117Z,8.92
2023-03-04T00:28:19.786Z,8.82
2023-03-04T00:30:47.449Z,8.78
2023-03-04T00:33:15.748Z,8.78
2023-03-04T00:35:43.443Z,8.60
2023-03-04T00:38:11.230Z,8.43
2023-03-04T00:40:38.760Z,8.32
2023-03-04T00:43:06.634Z,8.32
2023-03-04T00:45:34.155Z,8.31
2023-03-04T00:48:02.209Z,8.38
2023-03-04T00:50:29.676Z,8.45
2023-03-04T00:52:57.964Z,8.46
2023-03-04T00:55:25.490Z,8.48
2023-03-04T00:57:53.767Z,8.49
2023-03-04T01:00:21.772Z,8.46
2023-03-04T01:02:49.653Z,8.39
2023-03-04T01:05:17.554Z,8.33
2023-03-04T01:07:45.435Z,8.17
2023-03-04T01:10:15.665Z,8.12
2023-03-04T01:12:43.963Z,8.14
2023-03-04T01:15:14.079Z,8.15
2023-03-04T01:17:42.201Z,8.04
2023-03-04T01:20:11.039Z,8.09
2023-03-04T01:22:38.887Z,8.17
2023-03-04T01:25:07.802Z,8.17
2023-03-04T01:27:35.631Z,8.08
2023-03-04T01:30:04.424Z,8.02
2023-03-04T01:32:32.370Z,8.04
2023-03-04T01:34:59.896Z,8.11
2023-03-04T01:37:27.643Z,8.20
2023-03-04T01:39:55.206Z,8.30
2023-03-04T01:42:26.369Z,8.34
2023-03-04T01:44:54.306Z,8.38
2023-03-04T01:47:25.743Z,8.39
2023-03-04T01:49:56.528Z,8.35
2023-03-04T01:52:27.359Z,8.36
2023-03-04T01:54:56.288Z,8.34
2023-03-04T01:57:26.632Z,8.31
2023-03-04T02:00:22.676Z,8.29
2023-03-04T02:02:58.033Z,8.22
2023-03-04T02:05:28.053Z,8.01
2023-03-04T02:07:58.460Z,7.99
2023-03-04T02:10:26.447Z,7.97
2023-03-04T02:12:54.573Z,7.97
2023-03-04T02:15:23.002Z,8.00
2023-03-04T02:17:50.981Z,8.03
2023-03-04T02:20:41.663Z,7.99
2023-03-04T02:23:37.502Z,8.03
2023-03-04T02:26:10.237Z,8.05
2023-03-04T02:28:38.307Z,8.03
2023-03-04T02:31:06.503Z,7.89
2023-03-04T02:33:34.606Z,7.79
2023-03-04T02:36:02.121Z,7.73
2023-03-04T02:38:30.286Z,7.72
2023-03-04T02:40:58.444Z,7.70
2023-03-04T02:43:26.925Z,7.66
2023-03-04T02:45:54.508Z,7.66
2023-03-04T02:48:24.407Z,7.64
2023-03-04T02:50:54.178Z,7.62
2023-03-04T02:53:22.493Z,7.58
2023-03-04T02:55:50.477Z,7.54
2023-03-04T02:58:20.373Z,7.61
2023-03-04T03:00:48.505Z,7.62
2023-03-04T03:03:16.685Z,7.65
2023-03-04T03:05:44.620Z,7.79
2023-03-04T03:08:12.609Z,7.82
2023-03-04T03:10:41.595Z,7.77
2023-03-04T03:13:09.731Z,7.81
2023-03-04T03:15:42.243Z,7.84
2023-03-04T03:18:11.042Z,7.92
2023-03-04T03:20:38.816Z,8.00
2023-03-04T03:23:06.778Z,7.99
2023-03-04T03:25:34.452Z,8.00
2023-03-04T03:28:02.401Z,8.02
2023-03-04T03:30:30.094Z,8.05
2023-03-04T03:32:58.152Z,8.08
2023-03-04T03:35:26.002Z,8.12
2023-03-04T03:37:53.907Z,8.18
2023-03-04T03:40:21.395Z,8.19
2023-03-04T03:42:49.259Z,8.16
2023-03-04T03:45:16.953Z,8.19
2023-03-04T03:47:45.235Z,8.23
2023-03-04T03:50:12.866Z,8.21
2023-03-04T03:52:40.688Z,8.21
2023-03-04T03:55:09.354Z,8.18
2023-03-04T03:57:37.201Z,8.18
2023-03-04T04:00:07.272Z,8.20
2023-03-04T04:02:41.138Z,8.18
2023-03-04T04:05:10.660Z,8.17
2023-03-04T04:07:38.844Z,8.14
2023-03-04T04:10:06.891Z,8.15
2023-03-04T04:12:35.034Z,8.13
2023-03-04T04:15:02.584Z,8.12
2023-03-04T04:17:30.425Z,8.16
2023-03-04T04:19:57.974Z,8.18
2023-03-04T04:22:25.767Z,8.05
2023-03-04T04:24:53.506Z,7.99
2023-03-04T04:27:21.429Z,7.96
2023-03-04T04:29:48.851Z,7.99
2023-03-04T04:32:16.889Z,8.06
2023-03-04T04:34:44.351Z,8.04
2023-03-04T04:37:12.265Z,8.00
2023-03-04T04:39:39.822Z,8.01
2023-03-04T04:42:07.593Z,8.05
2023-03-04T04:44:35.093Z,8.17
2023-03-04T04:47:03.096Z,8.20
2023-03-04T04:49:30.640Z,8.07
2023-03-04T04:51:58.761Z,8.03
2023-03-04T04:54:26.348Z,7.88
2023-03-04T04:56:54.319Z,7.81
2023-03-04T04:59:22.156Z,7.75
2023-03-04T05:01:50.057Z,7.77
2023-03-04T05:04:17.580Z,7.75
2023-03-04T05:06:45.441Z,7.79
2023-03-04T05:09:13.374Z,7.80
2023-03-04T05:11:41.176Z,7.85
2023-03-04T05:14:08.774Z,7.89
2023-03-04T05:16:36.600Z,7.96
2023-03-04T05:19:04.516Z,8.01
2023-03-04T05:21:32.566Z,8.10
2023-03-04T05:24:00.006Z,7.97
2023-03-04T05:26:27.937Z,7.86
2023-03-04T05:28:55.444Z,7.77
2023-03-04T05:31:23.567Z,7.68
2023-03-04T05:33:51.079Z,7.62
2023-03-04T05:36:19.004Z,7.61
2023-03-04T05:38:46.589Z,7.65
2023-03-04T05:41:14.524Z,7.77
2023-03-04T05:43:43.053Z,7.87
2023-03-04T05:46:16.382Z,8.00
2023-03-04T05:48:45.059Z,8.15
2023-03-04T05:51:12.898Z,8.27
2023-03-04T05:53:41.812Z,8.29
2023-03-04T05:56:19.889Z,8.34
2023-03-04T05:58:50.590Z,8.39
2023-03-04T06:01:18.605Z,8.46
2023-03-04T06:03:48.704Z,8.51
2023-03-04T06:06:17.091Z,8.51
2023-03-04T06:08:44.553Z,8.52
2023-03-04T06:11:12.368Z,8.55
2023-03-04T06:13:40.297Z,8.60
2023-03-04T06:16:08.556Z,8.64
2023-03-04T06:18:36.251Z,8.70
2023-03-04T06:21:05.072Z,8.73
2023-03-04T06:23:32.603Z,8.80
2023-03-04T06:26:01.947Z,8.82
2023-03-04T06:28:30.315Z,8.85
2023-03-04T06:30:58.663Z,8.86
2023-03-04T06:33:26.598Z,8.85
2023-03-04T06:35:57.171Z,8.85
2023-03-04T06:38:26.429Z,8.89
2023-03-04T06:40:57.145Z,8.92
2023-03-04T06:43:25.324Z,8.89
2023-03-04T06:45:53.114Z,8.88
2023-03-04T06:48:20.586Z,8.80
2023-03-04T06:50:48.359Z,8.77
2023-03-04T06:53:16.146Z,8.80
2023-03-04T06:55:43.956Z,8.84
2023-03-04T06:58:11.420Z,8.72
2023-03-04T07:00:39.461Z,8.70
2023-03-04T07:03:06.935Z,8.71
2023-03-04T07:05:34.777Z,8.59
2023-03-04T07:08:02.311Z,8.54
2023-03-04T07:10:30.501Z,8.53
2023-03-04T07:12:58.210Z,8.51
2023-03-04T07:15:26.004Z,8.45
2023-03-04T07:17:53.530Z,8.45
2023-03-04T07:20:21.761Z,8.45
2023-03-04T07:22:49.279Z,8.49
2023-03-04T07:25:18.155Z,8.52
2023-03-04T07:27:45.679Z,8.48
2023-03-04T07:30:14.159Z,8.54
2023-03-04T07:32:42.252Z,8.58
2023-03-04T07:35:10.355Z,8.53
2023-03-04T07:37:37.828Z,8.58
2023-03-04T07:40:08.256Z,8.63
2023-03-04T07:42:35.951Z,8.54
2023-03-04T07:45:10.627Z,8.53
2023-03-04T07:47:39.897Z,8.53
2023-03-04T07:50:09.162Z,8.64
2023-03-04T07:52:42.154Z,8.70
2023-03-04T07:55:12.368Z,8.64
2023-03-04T07:57:45.244Z,8.71
2023-03-04T08:00:16.558Z,8.78
2023-03-04T08:02:44.418Z,8.93
2023-03-04T08:05:13.509Z,8.96
2023-03-04T08:07:43.362Z,9.01
2023-03-04T08:10:12.236Z,8.96
2023-03-04T08:12:40.331Z,8.90
2023-03-04T08:15:09.525Z,8.83
2023-03-04T08:17:38.466Z,8.82
2023-03-04T08:20:07.797Z,8.71
2023-03-04T08:22:35.557Z,8.74
2023-03-04T08:25:03.830Z,8.80
2023-03-04T08:27:31.530Z,8.74
2023-03-04T08:29:59.575Z,8.72
2023-03-04T08:32:27.522Z,8.74
2023-03-04T08:34:57.041Z,8.67
2023-03-04T08:37:24.690Z,8.79
2023-03-04T08:39:52.603Z,8.84
2023-03-04T08:42:20.260Z,8.87
2023-03-04T08:44:48.180Z,8.87
2023-03-04T08:47:16.156Z,8.87
2023-03-04T08:49:44.265Z,9.02
2023-03-04T08:52:11.831Z,9.10
2023-03-04T08:54:39.703Z,9.18
2023-03-04T08:57:07.952Z,9.21
2023-03-04T08:59:38.158Z,9.31
2023-03-04T09:02:06.256Z,9.46
2023-03-04T09:04:34.332Z,9.58
2023-03-04T09:07:01.854Z,9.77
2023-03-04T09:09:30.178Z,9.78
2023-03-04T09:11:58.428Z,9.77
2023-03-04T09:14:26.365Z,9.88
2023-03-04T09:16:54.050Z,9.90
2023-03-04T09:19:22.177Z,10.01
2023-03-04T09:21:49.785Z,10.15
2023-03-04T09:24:17.756Z,10.29
2023-03-04T09:26:46.108Z,10.33
2023-03-04T09:29:14.128Z,10.42
2023-03-04T09:31:41.726Z,10.44
2023-03-04T09:34:09.822Z,10.48
2023-03-04T09:36:37.482Z,10.54
2023-03-04T09:39:06.660Z,10.59
2023-03-04T09:41:50.619Z,10.60
2023-03-04T09:44:38.082Z,10.48
2023-03-04T09:47:17.979Z,10.41
2023-03-04T09:50:00.825Z,10.19
2023-03-04T09:52:46.765Z,10.04
2023-03-04T09:55:28.359Z,9.83
2023-03-04T09:58:17.061Z,9.81
2023-03-04T10:01:17.438Z,9.89
2023-03-04T10:04:05.809Z,9.97
2023-03-04T10:06:34.572Z,10.13
2023-03-04T10:09:26.360Z,10.31
2023-03-04T10:12:13.840Z,10.47
2023-03-04T10:14:58.585Z,10.54
2023-03-04T10:17:42.850Z,10.69
2023-03-04T10:20:21.311Z,10.71
2023-03-04T10:22:59.134Z,10.71
2023-03-04T10:25:30.689Z,10.67
2023-03-04T10:28:20.638Z,10.64
2023-03-04T10:31:13.861Z,10.47
2023-03-04T10:33:42.642Z,10.44
2023-03-04T10:36:31.390Z,10.34
2023-03-04T10:39:07.185Z,10.41
2023-03-04T10:41:34.991Z,10.46
2023-03-04T10:44:05.728Z,10.51
2023-03-04T10:46:36.033Z,10.58
2023-03-04T10:49:04.961Z,10.57
2023-03-04T10:51:33.642Z,10.54
2023-03-04T10:54:10.952Z,10.61
2023-03-04T10:56:53.446Z,10.73
2023-03-04T10:59:37.000Z,10.79
2023-03-04T11:02:24.439Z,10.91
2023-03-04T11:05:21.706Z,11.07
2023-03-04T11:07:57.290Z,11.17
2023-03-04T11:10:38.291Z,11.21
2023-03-04T11:13:12.079Z,11.27
2023-03-04T11:15:58.184Z,11.27
2023-03-04T11:18:51.262Z,11.26
2023-03-04T11:21:26.951Z,11.10
2023-03-04T11:24:25.759Z,11.06
2023-03-04T11:27:13.271Z,11.06
2023-03-04T11:30:23.938Z,11.17
2023-03-04T11:33:07.267Z,11.19
2023-03-04T11:36:30.384Z,11.37
2023-03-04T11:39:00.596Z,11.46
2023-03-04T11:41:35.938Z,11.54
2023-03-04T11:44:09.019Z,11.55
2023-03-04T11:46:43.689Z,11.54
2023-03-04T11:49:17.361Z,11.50
2023-03-04T11:52:03.845Z,11.46
2023-03-04T11:55:18.524Z,11.40
2023-03-04T11:58:16.291Z,11.32
2023-03-04T12:01:03.670Z,11.34
2023-03-04T12:04:03.747Z,11.44
2023-03-04T12:07:11.316Z,11.53
2023-03-04T12:09:49.531Z,11.52
2023-03-04T12:12:53.919Z,11.62
2023-03-04T12:15:41.681Z,11.72
2023-03-04T12:18:39.554Z,11.76
2023-03-04T12:21:42.635Z,11.81
2023-03-04T12:24:42.988Z,11.81
2023-03-04T12:27:45.666Z,11.77
2023-03-04T12:30:50.131Z,11.63
2023-03-04T12:34:02.445Z,11.55
2023-03-04T12:37:05.402Z,11.46
2023-03-04T12:40:06.811Z,11.48
2023-03-04T12:42:51.664Z,11.51
2023-03-04T12:45:30.677Z,11.60
2023-03-04T12:48:35.180Z,11.74
2023-03-04T12:51:49.625Z,11.75
2023-03-04T12:54:31.363Z,11.57
2023-03-04T12:57:24.106Z,11.48
2023-03-04T13:00:12.880Z,11.48
2023-03-04T13:03:10.792Z,11.56
2023-03-04T13:05:46.040Z,11.55
2023-03-04T13:08:28.284Z,11.62
2023-03-04T13:11:04.100Z,11.55
2023-03-04T13:14:00.635Z,11.50
2023-03-04T13:16:40.896Z,11.45
2023-03-04T13:19:47.234Z,11.43
2023-03-04T13:22:39.295Z,11.41
2023-03-04T13:25:39.611Z,11.42
2023-03-04T13:28:21.292Z,11.46
2023-03-04T13:30:55.887Z,11.40
2023-03-04T13:33:23.753Z,11.31
2023-03-04T13:36:00.187Z,11.34
2023-03-04T13:38:28.221Z,11.35
2023-03-04T13:41:25.017Z,11.42
2023-03-04T13:44:23.336Z,11.36
2023-03-04T13:46:51.037Z,11.34
2023-03-04T13:49:24.831Z,11.37
2023-03-04T13:51:53.021Z,11.32
2023-03-04T13:54:30.107Z,11.34
2023-03-04T13:57:00.489Z,11.41
2023-03-04T13:59:50.833Z,11.36
2023-03-04T14:02:22.812Z,11.36
2023-03-04T14:05:00.319Z,11.40
2023-03-04T14:07:37.205Z,11.45
2023-03-04T14:10:19.508Z,11.47
2023-03-04T14:12:59.165Z,11.40
2023-03-04T14:15:30.227Z,11.27
2023-03-04T14:18:05.864Z,11.20
2023-03-04T14:20:42.817Z,11.18
2023-03-04T14:23:32.328Z,11.25
2023-03-04T14:26:18.368Z,11.17
2023-03-04T14:28:57.785Z,11.21
2023-03-04T14:31:30.364Z,11.18
2023-03-04T14:34:02.420Z,11.19
2023-03-04T14:36:34.631Z,11.23
2023-03-04T14:39:06.910Z,11.25
2023-03-04T14:41:39.736Z,11.11
2023-03-04T14:44:18.093Z,11.06
2023-03-04T14:47:06.509Z,11.00
2023-03-04T14:49:38.420Z,11.03
2023-03-04T14:52:07.350Z,11.04
2023-03-04T14:54:40.890Z,10.96
2023-03-04T14:57:36.008Z,10.92
2023-03-04T15:00:22.774Z,10.91
2023-03-04T15:03:24.621Z,10.99
2023-03-04T15:05:56.018Z,10.96
2023-03-04T15:08:38.397Z,11.01
2023-03-04T15:11:09.020Z,11.09
2023-03-04T15:13:53.693Z,11.06
2023-03-04T15:16:28.160Z,11.16
2023-03-04T15:19:24.891Z,11.25
2023-03-04T15:22:02.562Z,11.19
2023-03-04T15:24:30.433Z,11.22
2023-03-04T15:26:58.223Z,11.36
2023-03-04T15:29:26.476Z,11.51
2023-03-04T15:31:54.111Z,11.57
2023-03-04T15:34:22.114Z,11.65
2023-03-04T15:36:51.164Z,11.76
2023-03-04T15:39:21.786Z,11.96
2023-03-04T15:41:50.717Z,12.02
2023-03-04T15:44:19.195Z,12.19
2023-03-04T15:46:47.239Z,12.20
2023-03-04T15:49:16.088Z,12.36
2023-03-04T15:51:43.831Z,12.39
2023-03-04T15:54:14.150Z,12.43
2023-03-04T15:56:43.087Z,12.46
2023-03-04T15:59:14.320Z,12.41
2023-03-04T16:01:42.174Z,12.27
2023-03-04T16:04:19.359Z,12.18
2023-03-04T16:06:48.970Z,12.10
2023-03-04T16:09:19.849Z,11.92
2023-03-04T16:11:48.222Z,11.79
2023-03-04T16:14:17.228Z,11.68
2023-03-04T16:16:46.673Z,11.57
2023-03-04T16:19:15.162Z,11.50
2023-03-04T16:21:42.876Z,11.46
2023-03-04T16:24:19.582Z,11.42
2023-03-04T16:26:47.864Z,11.32
2023-03-04T16:29:16.649Z,11.17
2023-03-04T16:31:44.595Z,11.12
2023-03-04T16:34:12.960Z,11.05
2023-03-04T16:36:40.844Z,10.98
2023-03-04T16:39:20.889Z,10.91
2023-03-04T16:41:49.028Z,10.87
2023-03-04T16:44:16.963Z,10.80
2023-03-04T16:46:44.749Z,10.74
2023-03-04T16:49:12.671Z,10.63
2023-03-04T16:51:45.600Z,10.59
2023-03-04T16:54:32.029Z,10.55
2023-03-04T16:57:00.853Z,10.51
2023-03-04T16:59:29.542Z,10.46
2023-03-04T17:01:57.840Z,10.43
2023-03-04T17:04:25.963Z,10.38
2023-03-04T17:06:54.254Z,10.36
2023-03-04T17:09:24.335Z,10.34
2023-03-04T17:11:53.230Z,10.30
2023-03-04T17:14:21.210Z,10.23
2023-03-04T17:16:48.939Z,10.18
2023-03-04T17:19:17.256Z,10.06
2023-03-04T17:21:44.943Z,10.01
2023-03-04T17:24:13.208Z,9.97
2023-03-04T17:26:42.669Z,9.96
2023-03-04T17:29:10.650Z,9.95
2023-03-04T17:31:38.267Z,9.95
2023-03-04T17:34:06.295Z,9.91
2023-03-04T17:36:34.886Z,9.90
2023-03-04T17:39:04.934Z,9.87
2023-03-04T17:41:34.368Z,9.84
2023-03-04T17:44:05.881Z,9.81
2023-03-04T17:46:43.279Z,9.81
2023-03-04T17:49:15.868Z,9.80
2023-03-04T17:51:44.954Z,9.76
2023-03-04T17:54:12.812Z,9.72
2023-03-04T17:56:43.466Z,9.65
2023-03-04T17:59:17.184Z,9.64
2023-03-04T18:01:46.214Z,9.55
2023-03-04T18:04:14.969Z,9.52
2023-03-04T18:06:42.897Z,9.48
2023-03-04T18:09:11.047Z,9.49
2023-03-04T18:11:40.322Z,9.51
2023-03-04T18:14:08.750Z,9.58
2023-03-04T18:16:36.447Z,9.57
2023-03-04T18:19:04.934Z,9.61
2023-03-04T18:21:33.451Z,9.57
2023-03-04T18:24:02.267Z,9.54
2023-03-04T18:26:29.833Z,9.51
2023-03-04T18:28:58.006Z,9.47
2023-03-04T18:31:32.233Z,9.47
2023-03-04T18:34:02.342Z,9.59
2023-03-04T18:36:30.659Z,9.75
2023-03-04T18:38:59.690Z,9.76
2023-03-04T18:41:28.004Z,9.73
2023-03-04T18:43:56.799Z,9.64
2023-03-04T18:46:53.867Z,9.60
2023-03-04T18:49:21.857Z,9.53
2023-03-04T18:51:49.359Z,9.46
2023-03-04T18:54:18.423Z,9.40
2023-03-04T18:56:56.761Z,9.38
2023-03-04T18:59:40.927Z,9.22
2023-03-04T19:02:39.581Z,9.15
2023-03-04T19:05:20.256Z,9.04
2023-03-04T19:07:47.889Z,8.94
2023-03-04T19:10:17.672Z,8.91
2023-03-04T19:12:45.073Z,8.95
2023-03-04T19:15:14.340Z,8.90
2023-03-04T19:17:45.303Z,8.88
2023-03-04T19:20:14.476Z,8.90
2023-03-04T19:22:42.278Z,8.85
2023-03-04T19:25:11.028Z,8.85
2023-03-04T19:27:39.170Z,8.84
2023-03-04T19:30:09.978Z,8.84
2023-03-04T19:32:38.268Z,8.78
2023-03-04T19:35:08.325Z,8.65
2023-03-04T19:37:35.938Z,8.60
2023-03-04T19:40:04.975Z,8.66
2023-03-04T19:42:34.214Z,8.64
2023-03-04T19:45:03.706Z,8.60
2023-03-04T19:47:31.288Z,8.50
2023-03-04T19:49:59.070Z,8.48
2023-03-04T19:52:26.690Z,8.47
2023-03-04T19:54:54.702Z,8.41
2023-03-04T19:57:22.212Z,8.47
2023-03-04T19:59:50.721Z,8.48
2023-03-04T20:02:18.338Z,8.51
2023-03-04T20:04:46.432Z,8.45
2023-03-04T20:07:14.098Z,8.47
2023-03-04T20:09:41.896Z,8.40
2023-03-04T20:12:09.526Z,8.38
2023-03-04T20:14:37.446Z,8.38
2023-03-04T20:17:07.047Z,8.37
2023-03-04T20:19:37.080Z,8.33
2023-03-04T20:22:07.078Z,8.36
2023-03-04T20:24:35.085Z,8.38
2023-03-04T20:27:03.050Z,8.40
2023-03-04T20:29:31.028Z,8.35
2023-03-04T20:31:58.886Z,8.31
2023-03-04T20:34:27.267Z,8.24
2023-03-04T20:36:54.861Z,8.22
2023-03-04T20:39:29.077Z,8.13
2023-03-04T20:41:58.727Z,8.07
2023-03-04T20:44:27.134Z,8.09
2023-03-04T20:46:54.609Z,8.05
2023-03-04T20:49:26.737Z,8.08
2023-03-04T20:52:00.290Z,8.05
2023-03-04T20:54:28.164Z,8.05
2023-03-04T20:56:56.249Z,8.05
2023-03-04T20:59:25.568Z,8.13
2023-03-04T21:01:53.294Z,8.16
2023-03-04T21:04:21.415Z,8.18
2023-03-04T21:06:50.751Z,8.21
2023-03-04T21:09:22.515Z,8.23
2023-03-04T21:11:51.590Z,8.24
2023-03-04T21:14:25.882Z,8.29
2023-03-04T21:17:00.520Z,8.28
2023-03-04T21:19:32.481Z,8.30
2023-03-04T21:22:01.020Z,8.16
2023-03-04T21:24:32.861Z,8.11
2023-03-04T21:27:01.714Z,8.14
2023-03-04T21:29:29.585Z,8.11
2023-03-04T21:32:22.756Z,8.05
2023-03-04T21:34:52.954Z,8.00
2023-03-04T21:37:25.646Z,7.93
2023-03-04T21:39:55.115Z,7.93
2023-03-04T21:42:22.900Z,7.94
2023-03-04T21:44:51.796Z,7.90
2023-03-04T21:47:21.211Z,7.94
2023-03-04T21:49:49.443Z,7.96
2023-03-04T21:52:19.916Z,7.92
2023-03-04T21:54:48.670Z,7.82
2023-03-04T21:57:16.774Z,7.79
2023-03-04T21:59:44.917Z,7.87
2023-03-04T22:02:17.704Z,7.84
2023-03-04T22:04:46.266Z,7.78
2023-03-04T22:07:14.496Z,7.77
2023-03-04T22:09:42.358Z,7.77
2023-03-04T22:12:10.267Z,7.69
2023-03-04T22:14:38.060Z,7.61
2023-03-04T22:17:06.052Z,7.53
2023-03-04T22:19:33.988Z,7.48
2023-03-04T22:22:01.812Z,7.53
2023-03-04T22:24:29.683Z,7.59
2023-03-04T22:26:57.776Z,7.57
2023-03-04T22:29:25.847Z,7.55
2023-03-04T22:31:53.416Z,7.56
2023-03-04T22:34:21.353Z,7.51
2023-03-04T22:36:49.464Z,7.48
2023-03-04T22:39:19.669Z,7.38
2023-03-04T22:41:47.986Z,7.37
2023-03-04T22:44:16.331Z,7.35
2023-03-04T22:46:44.020Z,7.34
2023-03-04T22:49:13.989Z,7.34
2023-03-04T22:51:44.021Z,7.38
2023-03-04T22:54:17.405Z,7.33
2023-03-04T22:56:45.586Z,7.25
2023-03-04T22:59:14.132Z,7.22
2023-03-04T23:01:42.141Z,7.24
2023-03-04T23:04:10.101Z,7.32
2023-03-04T23:06:37.878Z,7.29
2023-03-04T23:09:05.918Z,7.25
2023-03-04T23:11:35.676Z,7.20
2023-03-04T23:14:07.570Z,7.18
2023-03-04T23:16:43.311Z,7.17
2023-03-04T23:19:16.671Z,7.19
2023-03-04T23:21:44.929Z,7.20
2023-03-04T23:24:14.041Z,7.25
2023-03-04T23:26:42.867Z,7.34
2023-03-04T23:29:14.722Z,7.37
2023-03-04T23:31:44.410Z,7.43
2023-03-04T23:34:12.952Z,7.46
2023-03-04T23:36:41.072Z,7.46
2023-03-04T23:39:10.184Z,7.39
2023-03-04T23:41:38.670Z,7.30
2023-03-04T23:44:08.275Z,7.29
2023-03-04T23:46:37.798Z,7.33
2023-03-04T23:49:12.590Z,7.42
2023-03-04T23:51:41.031Z,7.43
2023-03-04T23:54:09.048Z,7.36
2023-03-04T23:56:36.911Z,7.35
2023-03-04T23:59:05.276Z,7.42
